createdAt,value
2023-01-20T00:01:43.145Z,0.50
2023-01-20T00:04:10.178Z,0.50
2023-01-20T00:06:51.996Z,0.50
2023-01-20T00:09:19.089Z,0.50
2023-01-20T00:11:46.841Z,0.50
2023-01-20T00:14:14.159Z,0.40
2023-01-20T00:16:41.028Z,0.40
2023-01-20T00:19:09.511Z,0.40
2023-01-20T00:21:36.242Z,0.40
2023-01-20T00:24:03.064Z,0.40
2023-01-20T00:26:29.819Z,0.40
2023-01-20T00:29:00.054Z,0.40
2023-01-20T00:31:30.321Z,0.40
2023-01-20T00:34:00.396Z,0.40
2023-01-20T00:36:31.639Z,0.40
2023-01-20T00:38:59.137Z,0.40
2023-01-20T00:41:25.929Z,0.40
2023-01-20T00:43:53.066Z,0.40
2023-01-20T00:46:19.962Z,0.40
2023-01-20T00:48:46.712Z,0.40
2023-01-20T00:51:13.429Z,0.30
2023-01-20T00:53:40.324Z,0.30
2023-01-20T00:56:08.089Z,0.30
2023-01-20T00:58:35.007Z,0.30
2023-01-20T01:01:02.205Z,0.30
2023-01-20T01:03:29.305Z,0.30
2023-01-20T01:06:11.737Z,0.30
2023-01-20T01:08:38.511Z,0.30
2023-01-20T01:11:06.497Z,0.30
2023-01-20T01:13:35.154Z,0.30
2023-01-20T01:16:01.991Z,0.30
2023-01-20T01:18:28.867Z,0.30
2023-01-20T01:20:55.649Z,0.30
2023-01-20T01:23:22.501Z,0.30
2023-01-20T01:25:49.489Z,0.20
2023-01-20T01:28:16.277Z,0.30
2023-01-20T01:30:43.057Z,0.30
2023-01-20T01:33:09.820Z,0.30
2023-01-20T01:35:36.637Z,0.30
2023-01-20T01:38:03.441Z,0.30
2023-01-20T01:40:30.264Z,0.30
2023-01-20T01:42:57.023Z,0.30
2023-01-20T01:45:30.004Z,0.30
2023-01-20T01:48:10.193Z,0.30
2023-01-20T01:50:47.149Z,0.30
2023-01-20T01:53:15.536Z,0.30
2023-01-20T01:55:56.078Z,0.40
2023-01-20T01:58:32.291Z,0.40
2023-01-20T02:00:59.484Z,0.40
2023-01-20T02:03:36.040Z,0.40
2023-01-20T02:06:04.931Z,0.30
2023-01-20T02:08:31.941Z,0.30
2023-01-20T02:10:58.669Z,0.30
2023-01-20T02:13:25.498Z,0.30
2023-01-20T02:17:00.702Z,0.30
2023-01-20T02:20:01.525Z,0.30
2023-01-20T02:22:41.330Z,0.30
2023-01-20T02:25:29.559Z,0.40
2023-01-20T02:28:33.882Z,0.40
2023-01-20T02:31:44.502Z,0.40
2023-01-20T02:34:27.584Z,0.30
2023-01-20T02:37:03.390Z,0.30
2023-01-20T02:39:58.936Z,0.30
2023-01-20T02:42:43.484Z,0.30
2023-01-20T02:45:45.859Z,0.30
2023-01-20T02:48:24.087Z,0.30
2023-01-20T02:51:07.633Z,0.30
2023-01-20T02:53:48.043Z,0.30
2023-01-20T02:56:17.791Z,0.30
2023-01-20T02:59:06.494Z,0.30
2023-01-20T03:01:42.374Z,0.30
2023-01-20T03:04:15.936Z,0.30
2023-01-20T03:06:53.393Z,0.30
2023-01-20T03:09:30.317Z,0.30
2023-01-20T03:12:04.325Z,0.30
2023-01-20T03:14:31.534Z,0.30
2023-01-20T03:16:58.321Z,0.30
2023-01-20T03:19:25.163Z,0.30
2023-01-20T03:21:52.839Z,0.30
2023-01-20T03:24:22.149Z,0.30
2023-01-20T03:26:48.880Z,0.30
2023-01-20T03:29:16.013Z,0.30
2023-01-20T03:31:53.215Z,0.30
2023-01-20T03:34:24.969Z,0.40
2023-01-20T03:36:54.311Z,0.40
2023-01-20T03:39:22.951Z,0.40
2023-01-20T03:42:16.432Z,0.40
2023-01-20T03:45:15.228Z,0.40
2023-01-20T03:48:11.222Z,0.30
2023-01-20T03:51:00.013Z,0.30
2023-01-20T03:53:59.768Z,0.30
2023-01-20T03:56:43.041Z,0.20
2023-01-20T03:59:14.186Z,0.30
2023-01-20T04:01:45.272Z,0.30
2023-01-20T04:04:18.283Z,0.30
2023-01-20T04:06:47.953Z,0.30
2023-01-20T04:09:23.636Z,0.30
2023-01-20T04:11:51.211Z,0.50
2023-01-20T04:14:18.351Z,0.30
2023-01-20T04:16:57.495Z,0.30
2023-01-20T04:19:25.539Z,0.40
2023-01-20T04:22:22.670Z,0.30
2023-01-20T04:25:15.280Z,0.30
2023-01-20T04:27:42.261Z,0.40
2023-01-20T04:30:10.448Z,0.40
2023-01-20T04:32:37.299Z,0.40
2023-01-20T04:35:04.375Z,0.40
2023-01-20T04:37:31.175Z,0.30
2023-01-20T04:39:57.911Z,0.30
2023-01-20T04:42:24.737Z,0.30
2023-01-20T04:44:51.503Z,0.30
2023-01-20T04:47:18.251Z,0.30
2023-01-20T04:49:45.532Z,0.30
2023-01-20T04:52:12.418Z,0.30
2023-01-20T04:54:39.267Z,0.30
2023-01-20T04:57:06.357Z,0.40
2023-01-20T04:59:33.355Z,0.30
2023-01-20T05:02:00.284Z,0.30
2023-01-20T05:04:27.060Z,0.30
2023-01-20T05:06:53.778Z,0.30
2023-01-20T05:09:20.766Z,0.30
2023-01-20T05:11:47.509Z,0.30
2023-01-20T05:14:14.685Z,0.30
2023-01-20T05:16:41.476Z,0.20
2023-01-20T05:19:08.440Z,0.30
2023-01-20T05:21:35.307Z,0.20
2023-01-20T05:24:02.026Z,0.20
2023-01-20T05:26:28.817Z,0.20
2023-01-20T05:28:55.715Z,0.20
2023-01-20T05:31:22.519Z,0.20
2023-01-20T05:33:49.399Z,0.20
2023-01-20T05:36:16.127Z,0.20
2023-01-20T05:38:42.982Z,0.20
2023-01-20T05:41:10.508Z,0.20
2023-01-20T05:43:37.676Z,0.10
2023-01-20T05:46:06.311Z,0.10
2023-01-20T05:48:33.408Z,0.10
2023-01-20T05:51:00.414Z,0.10
2023-01-20T05:53:27.235Z,0.10
2023-01-20T05:56:01.223Z,0.10
2023-01-20T05:58:29.741Z,0.10
2023-01-20T06:01:09.148Z,0.10
2023-01-20T06:03:36.131Z,0.10
2023-01-20T06:06:14.149Z,0.00
2023-01-20T06:08:41.493Z,0.00
2023-01-20T06:11:08.259Z,-0.10
2023-01-20T06:13:35.423Z,0.00
2023-01-20T06:16:02.324Z,0.00
2023-01-20T06:18:30.451Z,0.00
2023-01-20T06:21:00.990Z,0.00
2023-01-20T06:23:29.003Z,0.00
2023-01-20T06:26:05.886Z,0.10
2023-01-20T06:28:33.413Z,0.10
2023-01-20T06:31:13.482Z,0.10
2023-01-20T06:33:40.965Z,0.10
2023-01-20T06:36:10.955Z,0.00
2023-01-20T06:38:37.770Z,0.00
2023-01-20T06:41:07.559Z,0.00
2023-01-20T06:43:35.681Z,0.00
2023-01-20T06:46:05.609Z,-0.10
2023-01-20T06:48:33.455Z,-0.10
2023-01-20T06:51:06.647Z,-0.10
2023-01-20T06:53:33.852Z,-0.10
2023-01-20T06:56:01.757Z,-0.10
2023-01-20T06:58:33.901Z,-0.10
2023-01-20T07:01:24.853Z,0.00
2023-01-20T07:03:52.010Z,0.00
2023-01-20T07:06:24.777Z,0.00
2023-01-20T07:08:51.919Z,0.10
2023-01-20T07:11:18.778Z,0.10
2023-01-20T07:13:45.565Z,0.10
2023-01-20T07:16:15.669Z,0.10
2023-01-20T07:18:46.870Z,0.20
2023-01-20T07:21:13.691Z,0.20
2023-01-20T07:23:40.628Z,0.20
2023-01-20T07:26:14.983Z,0.20
2023-01-20T07:28:41.958Z,0.20
2023-01-20T07:31:16.768Z,0.20
2023-01-20T07:33:44.027Z,0.20
2023-01-20T07:36:13.255Z,0.20
2023-01-20T07:38:40.541Z,0.20
2023-01-20T07:41:11.851Z,0.20
2023-01-20T07:43:38.643Z,0.10
2023-01-20T07:46:06.027Z,0.10
2023-01-20T07:48:33.967Z,0.10
2023-01-20T07:51:10.977Z,0.10
2023-01-20T07:53:47.633Z,0.10
2023-01-20T07:56:21.997Z,0.00
2023-01-20T07:58:50.612Z,0.10
2023-01-20T08:01:30.881Z,0.10
2023-01-20T08:04:02.523Z,0.10
2023-01-20T08:06:30.425Z,0.10
2023-01-20T08:09:01.578Z,0.20
2023-01-20T08:11:28.718Z,0.20
2023-01-20T08:13:55.695Z,0.20
2023-01-20T08:16:22.518Z,0.30
2023-01-20T08:18:49.441Z,0.30
2023-01-20T08:21:20.482Z,0.30
2023-01-20T08:23:47.424Z,0.40
2023-01-20T08:26:14.799Z,0.40
2023-01-20T08:28:41.655Z,0.40
2023-01-20T08:31:15.581Z,0.40
2023-01-20T08:33:44.008Z,0.40
2023-01-20T08:36:21.591Z,0.30
2023-01-20T08:38:49.476Z,0.30
2023-01-20T08:41:28.222Z,0.30
2023-01-20T08:43:58.873Z,0.40
2023-01-20T08:46:25.742Z,0.40
2023-01-20T08:48:54.137Z,0.40
2023-01-20T08:51:26.429Z,0.40
2023-01-20T08:53:53.352Z,0.40
2023-01-20T08:56:21.288Z,0.50
2023-01-20T08:58:48.748Z,0.50
2023-01-20T09:01:23.760Z,0.50
2023-01-20T09:04:04.985Z,0.60
2023-01-20T09:06:53.831Z,0.70
2023-01-20T09:09:22.971Z,0.80
2023-01-20T09:11:52.738Z,0.80
2023-01-20T09:14:25.475Z,0.80
2023-01-20T09:16:52.412Z,0.80
2023-01-20T09:19:19.431Z,0.80
2023-01-20T09:21:46.273Z,0.80
2023-01-20T09:24:13.081Z,0.80
2023-01-20T09:26:39.856Z,0.80
2023-01-20T09:29:11.624Z,0.80
2023-01-20T09:31:45.090Z,0.80
2023-01-20T09:34:21.816Z,0.80
2023-01-20T09:36:53.865Z,0.90
2023-01-20T09:39:40.718Z,1.00
2023-01-20T09:43:12.067Z,1.00
2023-01-20T09:45:56.476Z,1.00
2023-01-20T09:49:34.381Z,1.10
2023-01-20T09:52:47.831Z,1.10
2023-01-20T09:55:26.346Z,1.10
2023-01-20T09:58:55.010Z,1.10
2023-01-20T10:01:40.501Z,1.10
2023-01-20T10:04:19.887Z,1.20
2023-01-20T10:07:16.630Z,1.10
2023-01-20T10:10:12.816Z,1.30
2023-01-20T10:12:54.830Z,1.40
2023-01-20T10:15:36.648Z,1.50
2023-01-20T10:18:25.139Z,1.50
2023-01-20T10:21:02.178Z,1.50
2023-01-20T10:23:39.701Z,1.60
2023-01-20T10:26:25.519Z,1.60
2023-01-20T10:29:03.243Z,1.60
2023-01-20T10:31:44.894Z,1.60
2023-01-20T10:34:22.431Z,1.70
2023-01-20T10:37:04.241Z,1.90
2023-01-20T10:39:46.702Z,1.70
2023-01-20T10:42:18.649Z,1.80
2023-01-20T10:44:49.344Z,1.80
2023-01-20T10:47:43.616Z,1.80
2023-01-20T10:50:29.045Z,1.70
2023-01-20T10:53:18.473Z,1.80
2023-01-20T10:55:54.542Z,1.70
2023-01-20T10:58:35.472Z,1.60
2023-01-20T11:01:10.102Z,1.60
2023-01-20T11:03:42.601Z,1.60
2023-01-20T11:06:22.793Z,1.60
2023-01-20T11:08:49.895Z,1.60
2023-01-20T11:11:22.498Z,1.60
2023-01-20T11:13:53.633Z,1.70
2023-01-20T11:16:31.497Z,1.80
2023-01-20T11:19:07.475Z,1.80
2023-01-20T11:21:36.989Z,1.80
2023-01-20T11:24:40.838Z,1.80
2023-01-20T11:27:20.171Z,1.90
2023-01-20T11:29:56.467Z,2.00
2023-01-20T11:32:31.201Z,2.10
2023-01-20T11:34:59.708Z,1.90
2023-01-20T11:37:43.387Z,2.00
2023-01-20T11:40:23.352Z,2.00
2023-01-20T11:42:52.541Z,1.90
2023-01-20T11:45:37.411Z,1.70
2023-01-20T11:48:19.256Z,1.70
2023-01-20T11:51:01.490Z,1.70
2023-01-20T11:53:33.660Z,1.50
2023-01-20T11:56:17.728Z,1.50
2023-01-20T11:59:01.910Z,1.50
2023-01-20T12:01:50.072Z,1.70
2023-01-20T12:04:44.135Z,1.70
2023-01-20T12:07:29.152Z,1.80
2023-01-20T12:10:14.780Z,1.80
2023-01-20T12:13:04.700Z,1.80
2023-01-20T12:15:37.745Z,1.70
2023-01-20T12:18:34.149Z,1.50
2023-01-20T12:21:17.787Z,1.40
2023-01-20T12:25:08.810Z,1.40
2023-01-20T12:27:53.216Z,1.40
2023-01-20T12:30:38.405Z,1.40
2023-01-20T12:33:32.568Z,1.20
2023-01-20T12:36:42.506Z,1.20
2023-01-20T12:40:21.345Z,1.10
2023-01-20T12:43:24.479Z,1.00
2023-01-20T12:46:03.134Z,1.20
2023-01-20T12:48:43.888Z,1.30
2023-01-20T12:51:28.760Z,1.40
2023-01-20T12:54:48.319Z,1.50
2023-01-20T12:58:00.298Z,1.60
2023-01-20T13:00:50.956Z,1.60
2023-01-20T13:03:58.554Z,1.60
2023-01-20T13:07:08.740Z,1.60
2023-01-20T13:10:09.332Z,1.60
2023-01-20T13:13:20.161Z,1.60
2023-01-20T13:16:02.601Z,1.40
2023-01-20T13:18:42.407Z,1.40
2023-01-20T13:21:21.042Z,1.30
2023-01-20T13:23:51.185Z,1.00
2023-01-20T13:26:19.087Z,1.00
2023-01-20T13:28:54.857Z,0.90
2023-01-20T13:31:41.547Z,0.90
2023-01-20T13:34:32.144Z,0.90
2023-01-20T13:37:07.169Z,0.90
2023-01-20T13:39:48.728Z,0.90
2023-01-20T13:42:37.469Z,0.90
2023-01-20T13:45:14.267Z,0.90
2023-01-20T13:47:54.073Z,0.90
2023-01-20T13:50:28.921Z,0.90
2023-01-20T13:53:20.844Z,0.90
2023-01-20T13:55:48.235Z,0.90
2023-01-20T13:58:47.755Z,1.00
2023-01-20T14:01:15.395Z,0.90
2023-01-20T14:03:42.796Z,0.90
2023-01-20T14:06:28.387Z,1.00
2023-01-20T14:08:55.315Z,0.80
2023-01-20T14:11:26.145Z,0.70
2023-01-20T14:14:07.914Z,0.60
2023-01-20T14:16:34.688Z,0.60
2023-01-20T14:19:18.006Z,0.50
2023-01-20T14:21:45.065Z,0.40
2023-01-20T14:24:30.719Z,0.30
2023-01-20T14:27:22.223Z,0.30
2023-01-20T14:29:54.874Z,0.30
2023-01-20T14:32:33.737Z,0.30
2023-01-20T14:35:04.279Z,0.30
2023-01-20T14:37:39.016Z,0.40
2023-01-20T14:40:11.894Z,0.50
2023-01-20T14:42:40.047Z,0.50
2023-01-20T14:45:20.874Z,0.50
2023-01-20T14:47:48.378Z,0.60
2023-01-20T14:50:18.621Z,0.60
2023-01-20T14:52:46.273Z,0.60
2023-01-20T14:55:29.188Z,0.60
2023-01-20T14:57:56.213Z,0.60
2023-01-20T15:00:33.898Z,0.60
2023-01-20T15:03:25.475Z,0.50
2023-01-20T15:06:22.136Z,0.40
2023-01-20T15:09:05.231Z,0.40
2023-01-20T15:11:33.411Z,0.30
2023-01-20T15:14:05.819Z,0.30
2023-01-20T15:16:49.231Z,0.30
2023-01-20T15:19:20.189Z,0.30
2023-01-20T15:22:15.923Z,0.30
2023-01-20T15:24:47.029Z,0.40
2023-01-20T15:27:31.355Z,0.40
2023-01-20T15:30:21.180Z,0.40
2023-01-20T15:32:49.735Z,0.40
2023-01-20T15:35:20.987Z,0.40
2023-01-20T15:37:47.833Z,0.40
2023-01-20T15:40:25.294Z,0.40
2023-01-20T15:42:53.337Z,0.30
2023-01-20T15:45:20.439Z,0.30
2023-01-20T15:47:47.512Z,0.30
2023-01-20T15:50:24.265Z,0.30
2023-01-20T15:52:51.178Z,0.30
2023-01-20T15:55:19.490Z,0.20
2023-01-20T15:57:51.854Z,0.20
2023-01-20T16:00:23.137Z,0.20
2023-01-20T16:02:50.527Z,0.20
2023-01-20T16:05:17.960Z,0.20
2023-01-20T16:07:47.385Z,0.20
2023-01-20T16:10:17.611Z,0.10
2023-01-20T16:12:45.672Z,0.10
2023-01-20T16:15:16.356Z,0.20
2023-01-20T16:17:43.547Z,0.20
2023-01-20T16:20:25.535Z,0.30
2023-01-20T16:22:52.893Z,0.20
2023-01-20T16:25:20.903Z,0.30
2023-01-20T16:27:47.702Z,0.30
2023-01-20T16:30:21.434Z,0.20
2023-01-20T16:32:48.273Z,0.20
2023-01-20T16:35:17.427Z,0.20
2023-01-20T16:37:47.453Z,0.30
2023-01-20T16:40:18.897Z,0.30
2023-01-20T16:42:46.769Z,0.30
2023-01-20T16:45:23.360Z,0.20
2023-01-20T16:47:50.664Z,0.20
2023-01-20T16:50:18.490Z,0.30
2023-01-20T16:52:45.953Z,0.30
2023-01-20T16:55:13.878Z,0.20
2023-01-20T16:57:42.420Z,0.20
2023-01-20T17:00:10.096Z,0.10
2023-01-20T17:02:39.001Z,0.20
2023-01-20T17:05:08.237Z,0.10
2023-01-20T17:07:35.644Z,0.10
2023-01-20T17:10:02.692Z,0.10
2023-01-20T17:12:29.496Z,0.00
2023-01-20T17:14:56.249Z,0.00
2023-01-20T17:17:23.037Z,-0.10
2023-01-20T17:19:49.772Z,-0.10
2023-01-20T17:22:17.168Z,-0.10
2023-01-20T17:24:43.925Z,-0.20
2023-01-20T17:27:10.650Z,-0.10
2023-01-20T17:29:38.327Z,-0.20
2023-01-20T17:32:05.264Z,-0.20
2023-01-20T17:34:32.037Z,-0.30
2023-01-20T17:36:59.474Z,-0.30
2023-01-20T17:39:26.320Z,-0.40
2023-01-20T17:41:53.187Z,-0.50
2023-01-20T17:44:20.028Z,-0.60
2023-01-20T17:46:49.932Z,-0.70
2023-01-20T17:49:16.873Z,-0.70
2023-01-20T17:51:44.215Z,-0.80
2023-01-20T17:54:11.226Z,-0.90
2023-01-20T17:56:38.536Z,-1.00
2023-01-20T17:59:05.729Z,-1.10
2023-01-20T18:01:33.391Z,-1.20
2023-01-20T18:04:01.245Z,-1.20
2023-01-20T18:06:28.582Z,-1.30
2023-01-20T18:09:01.260Z,-1.40
2023-01-20T18:11:35.672Z,-1.40
2023-01-20T18:14:04.740Z,-1.50
2023-01-20T18:16:36.071Z,-1.50
2023-01-20T18:19:04.173Z,-1.40
2023-01-20T18:21:35.225Z,-1.50
2023-01-20T18:24:07.068Z,-1.50
2023-01-20T18:26:36.811Z,-1.50
2023-01-20T18:29:08.121Z,-1.50
2023-01-20T18:31:35.654Z,-1.50
2023-01-20T18:34:06.412Z,-1.50
2023-01-20T18:36:38.966Z,-1.60
2023-01-20T18:39:18.702Z,-1.70
2023-01-20T18:41:46.505Z,-1.70
2023-01-20T18:44:14.373Z,-1.80
2023-01-20T18:46:41.517Z,-1.90
2023-01-20T18:49:09.815Z,-2.00
2023-01-20T18:51:37.141Z,-2.10
2023-01-20T18:54:09.629Z,-2.10
2023-01-20T18:56:36.863Z,-2.20
2023-01-20T18:59:06.529Z,-2.20
2023-01-20T19:01:37.223Z,-2.20
2023-01-20T19:04:06.048Z,-2.20
2023-01-20T19:06:37.196Z,-2.30
2023-01-20T19:09:06.461Z,-2.30
2023-01-20T19:11:36.339Z,-2.30
2023-01-20T19:14:03.715Z,-2.40
2023-01-20T19:16:37.872Z,-2.40
2023-01-20T19:19:07.316Z,-2.40
2023-01-20T19:21:36.419Z,-2.20
2023-01-20T19:24:06.080Z,-2.20
2023-01-20T19:26:37.956Z,-2.10
2023-01-20T19:29:17.102Z,-2.10
2023-01-20T19:31:44.166Z,-2.20
2023-01-20T19:34:11.143Z,-2.30
2023-01-20T19:36:37.998Z,-2.40
2023-01-20T19:39:05.952Z,-2.50
2023-01-20T19:41:34.481Z,-2.60
2023-01-20T19:44:04.494Z,-2.70
2023-01-20T19:46:34.555Z,-2.80
2023-01-20T19:49:02.385Z,-2.80
2023-01-20T19:51:31.259Z,-2.80
2023-01-20T19:54:01.031Z,-2.90
2023-01-20T19:56:31.672Z,-2.90
2023-01-20T19:59:03.023Z,-2.90
2023-01-20T20:01:33.382Z,-2.90
2023-01-20T20:04:09.581Z,-2.90
2023-01-20T20:06:45.095Z,-3.00
2023-01-20T20:09:20.448Z,-3.00
2023-01-20T20:11:48.213Z,-3.20
2023-01-20T20:14:19.219Z,-3.20
2023-01-20T20:16:47.276Z,-3.30
2023-01-20T20:19:19.033Z,-3.40
2023-01-20T20:21:46.270Z,-3.60
2023-01-20T20:24:16.292Z,-3.70
2023-01-20T20:26:46.136Z,-3.80
2023-01-20T20:29:15.051Z,-3.80
2023-01-20T20:31:41.923Z,-3.90
2023-01-20T20:34:14.318Z,-3.90
2023-01-20T20:36:41.259Z,-3.90
2023-01-20T20:39:08.328Z,-3.90
2023-01-20T20:41:36.519Z,-4.00
2023-01-20T20:44:04.035Z,-4.10
2023-01-20T20:46:31.491Z,-4.30
2023-01-20T20:49:00.930Z,-4.40
2023-01-20T20:51:32.280Z,-4.50
2023-01-20T20:54:02.235Z,-4.50
2023-01-20T20:56:31.775Z,-4.50
2023-01-20T20:59:03.112Z,-4.50
2023-01-20T21:01:33.656Z,-4.50
2023-01-20T21:04:01.899Z,-4.50
2023-01-20T21:06:29.828Z,-4.40
2023-01-20T21:08:58.581Z,-4.40
2023-01-20T21:11:26.210Z,-4.30
2023-01-20T21:13:53.315Z,-4.30
2023-01-20T21:16:22.856Z,-4.20
2023-01-20T21:18:56.232Z,-4.00
2023-01-20T21:21:24.212Z,-3.80
2023-01-20T21:23:54.795Z,-3.70
2023-01-20T21:26:24.530Z,-3.80
2023-01-20T21:28:51.601Z,-3.80
2023-01-20T21:31:23.064Z,-3.90
2023-01-20T21:33:58.475Z,-4.00
2023-01-20T21:36:26.797Z,-4.00
2023-01-20T21:38:53.850Z,-4.10
2023-01-20T21:41:21.089Z,-4.10
2023-01-20T21:44:07.401Z,-4.20
2023-01-20T21:46:40.215Z,-4.30
2023-01-20T21:49:27.150Z,-4.30
2023-01-20T21:52:13.512Z,-4.40
2023-01-20T21:54:41.121Z,-4.40
2023-01-20T21:57:08.121Z,-4.40
2023-01-20T21:59:34.986Z,-4.50
2023-01-20T22:02:01.960Z,-4.50
2023-01-20T22:04:28.840Z,-4.60
2023-01-20T22:06:55.697Z,-4.60
2023-01-20T22:09:22.599Z,-4.70
2023-01-20T22:11:50.009Z,-4.70
2023-01-20T22:14:17.066Z,-4.90
2023-01-20T22:16:44.021Z,-4.90
2023-01-20T22:19:13.584Z,-5.00
2023-01-20T22:21:40.875Z,-5.00
2023-01-20T22:24:08.273Z,-5.10
2023-01-20T22:26:35.379Z,-5.20
2023-01-20T22:29:02.206Z,-5.20
2023-01-20T22:31:30.099Z,-5.30
2023-01-20T22:33:59.083Z,-5.30
2023-01-20T22:36:26.015Z,-5.30
2023-01-20T22:38:53.372Z,-5.30
2023-01-20T22:41:20.993Z,-5.20
2023-01-20T22:43:49.970Z,-5.20
2023-01-20T22:46:20.411Z,-5.30
2023-01-20T22:48:47.478Z,-5.40
2023-01-20T22:51:18.696Z,-5.40
2023-01-20T22:53:45.703Z,-5.50
2023-01-20T22:56:17.147Z,-5.60
2023-01-20T22:58:45.261Z,-5.70
2023-01-20T23:01:21.932Z,-5.70
2023-01-20T23:03:52.844Z,-5.70
2023-01-20T23:06:19.590Z,-5.70
2023-01-20T23:08:46.339Z,-5.70
2023-01-20T23:11:16.519Z,-5.80
2023-01-20T23:13:43.846Z,-5.80
2023-01-20T23:16:15.407Z,-5.80
2023-01-20T23:18:42.418Z,-5.80
2023-01-20T23:21:09.406Z,-5.90
2023-01-20T23:23:36.767Z,-5.90
2023-01-20T23:26:09.985Z,-6.00
2023-01-20T23:28:36.766Z,-6.00
2023-01-20T23:31:08.843Z,-6.10
2023-01-20T23:33:35.791Z,-6.10
2023-01-20T23:36:17.896Z,-6.10
2023-01-20T23:38:45.956Z,-6.20
2023-01-20T23:41:14.557Z,-6.10
2023-01-20T23:43:42.042Z,-6.20
2023-01-20T23:46:09.690Z,-6.30
2023-01-20T23:48:37.043Z,-6.40
2023-01-20T23:51:05.960Z,-6.50
2023-01-20T23:53:36.417Z,-6.50
2023-01-20T23:56:13.073Z,-6.60
2023-01-20T23:58:40.076Z,-6.60
